Etusivu
METAR-TAF:

METAR-TAF

Lentoasemat :

Port Said, Egypti

Leveyspiiri: 31-16N, Pituuspiiri: 032-18E, korkeus merenpinnasta: 6 m

Tämänhetkinen sää

Tämä raportti tehtiin 1 tunti ja 11 minuuttia sitten, kello 18.00 UTC
Tuuli 12 kn koillisesta
Lämpötila 15°C
Kosteus 72%
Ilmanpaine 1015 hPa
Näkyvyys 10 km tai enemmän
Muutamia pilviä 3000 ft:n korkeudessa

METAR: HEPS 211800Z 04012KT 9999 FEW030 15/10 Q1015 NOSIG

Aika: 21:11 (19:11 UTC)

Sääennuste

Tämä raportti tehtiin 2 tuntia ja 11 minuuttia sitten, kello 17.00 UTC
Ennuste voimassa 21. päivästä klo 18 UTC - 22. päivään klo 24 UTC
Tuuli 8 kn lännestä puuskistuen 18 kn:hen
Näkyvyys 10 km tai enemmän
Muutamia pilviä 2500 ft:n korkeudessa
Hajanaisia pilviä 3000 ft:n korkeudessa
Ajoittain
22. päivästä klo 00 UTC - 22. päivään klo 06 UTC
Tuuli 3 kn eri suunnista

TAF: HEPS 211700Z 2118/2224 27008G18KT 9999 FEW025 SCT030 TEMPO 2200/2206 VRB03KT 2000BR NSC

Säähavainnot ja -ennusteet yli 4000 lentoasemalta (METAR- ja TAF-raportit).

Käytössä olevat sääasemat on merkitty karttaan keltaisilla ja punaisilla pisteillä.

Aseta hiiri pisteen päälle nähdäksesi sääaseman nimen.

Klikkaa sitten nähdäksesi säähavainnot ja -ennusteet.

Kartan vaihtaminen: klikkaa mustalla rastilla varustettuja vihreitä pisteitä, niin voit zoomata sisään; viivalla varustettua vihreää pistettä, niin voit zoomata ulos tai vihreitä nuolia, niin pääset viereisille kartoille.


METAR-TAF: